Aérodrome :
LOGIN :

S'inscrire | Disclaimer

   EN    FR    IT 

 










Légende :    VFR   VFR Marginal   IFR   IFR Intensif   IFR Très Intensif
Visi : 
Plafond : 
>= 8 km
>= 3000ft
5 à 8 km
1000 à 3000 ft
1500m à 5 km
500 à 1000 ft
800 à 1500m
200 à 500 ft
< 800m
< 200 ft
Symboles :   Orages  Brouillard  Fortes neiges  Fortes précipitations  Vent > 20 kt
SIGMETs :   Divers  Orages  Givrage  Turbulence  Onde Orograph.  Cendres Volcan.







- Altitude de l'aérodrome : 1455 ft


ETIH - Hohenfels Army Air Field

DERNIER METAR :
  • 192321Z AUTO 00000KT 6000 BR BKN001 05/05 A2999 RMK AO2 SLP165 $

METARs EXPIRÉS :
  • 192312Z AUTO 32003KT 5000 BR BKN000 05/05 A2999 RMK AO2 BKN V SCT SLP165 $
  • 192257Z AUTO 00000KT 0600 FG FEW001 05/05 A2999 RMK AO2 SLP165 RVRNO $
  • 192255Z AUTO 00000KT 0800 FG FEW001 05/05 A2999 RMK AO2 SLP165 RVRNO $
  • 192222Z AUTO 00000KT 1000 BR SCT000 05/05 A3000 RMK AO2 VIS 0400V1200 SLP168 RVRNO $
  • 192218Z AUTO 00000KT 0800 FG BKN000 05/05 A3000 RMK AO2 SLP168 RVRNO $
  • 192156Z AUTO 00000KT 0400 FG VV000 06/06 A3000 RMK AO2 SLP168 T00570057 RVRNO $
  • 192131Z AUTO 00000KT 0400 FG VV000 06/06 A3000 RMK AO2 SLP168 RVRNO $
  • 192056Z AUTO 00000KT 0400 FG VV000 07/07 A3001 RMK AO2 SLP172 T00650065 55000 RVRNO $

Prévision TAF périmée.
Pas de NOTAMs connus pour ce terrain.



MET'MAP, la Météo Aéronautique d'un coup d'oeil ! - Copyright ORBIFLY Décembre 2007 - Disclaimer

ORBIFLY MET'MAP TEAM :

Programmation & Développement : Alexandra Zaïnal
Conception & Développement : Baudouin d'Aumeries
Co-Programmation & Développement : Marc-Olivier Méhu
Soutien technique & logistique : Manuel Goepfert

Contact : metmap@orbifly.com




SOURCES & CREDITS :

   NOAA